Time;durP1;ratioP1;P1;durP2;ratioP2;P2;SDS_P1;SDS_P2;PMS_P1;PMS_P2;Temp;Humidity;BMP_temperature;BMP_pressure;BME280_temperature;BME280_humidity;BME280_pressure;Samples;Min_cycle;Max_cycle;Signal;HPM_P1;HPM_P2
2022/11/21 00:00:37;;;;;;;57.23;29.57;;;;;;;;;;2102667;28;20043;-42
2022/11/21 00:01:38;;;;;;;;;;;;;;;;;;2106838;28;20404;-42
2022/11/21 00:02:39;;;;;;;50.35;24.95;;;;;;;;;;2106454;28;19931;-41
2022/11/21 00:03:40;;;;;;;54.20;22.42;;;;;;;;;;2106546;28;20048;-41
2022/11/21 00:04:41;;;;;;;65.80;28.85;;;;;;;;;;2106263;28;20479;-42
2022/11/21 00:05:43;;;;;;;54.17;27.48;;;;;;;;;;2106493;28;20040;-41
2022/11/21 00:06:44;;;;;;;57.25;28.95;;;;;;;;;;2106202;28;20468;-41
2022/11/21 00:07:45;;;;;;;48.72;22.85;;;;;;;;;;2106425;28;20565;-41
2022/11/21 00:08:46;;;;;;;58.13;28.57;;;;;;;;;;2106464;28;20081;-41
2022/11/21 00:09:47;;;;;;;57.72;27.13;;;;;;;;;;2106218;28;20044;-41
2022/11/21 00:10:48;;;;;;;56.70;26.60;;;;;;;;;;2106424;28;20040;-41
2022/11/21 00:11:49;;;;;;;58.95;28.80;;;;;;;;;;2106437;28;20493;-41
2022/11/21 00:12:52;;;;;;;59.53;26.75;;;;;;;;;;2106483;28;20055;-42
2022/11/21 00:13:53;;;;;;;61.10;27.15;;;;;;;;;;2106390;28;20047;-41
2022/11/21 00:14:54;;;;;;;63.03;29.30;;;;;;;;;;2106368;28;20484;-41
2022/11/21 00:16:01;;;;;;;55.53;24.92;;;;;;;;;;2106772;28;20040;-46
2022/11/21 00:17:02;;;;;;;52.78;25.13;;;;;;;;;;2106316;28;20043;-47
2022/11/21 00:18:03;;;;;;;59.55;27.95;;;;;;;;;;2106166;28;20051;-47
2022/11/21 00:19:04;;;;;;;61.55;27.48;;;;;;;;;;2103749;28;20056;-46
2022/11/21 00:20:06;;;;;;;54.33;21.50;;;;;;;;;;2097912;28;20048;-47
2022/11/21 00:21:08;;;;;;;66.03;29.80;;;;;;;;;;2097863;28;20405;-46
2022/11/21 00:22:08;;;;;;;;;;;;;;;;;;2098420;28;20051;-46
2022/11/21 00:23:10;;;;;;;52.22;23.95;;;;;;;;;;2098052;28;20019;-46
2022/11/21 00:24:11;;;;;;;61.88;28.85;;;;;;;;;;2097744;28;20044;-46
2022/11/21 00:25:13;;;;;;;68.80;30.20;;;;;;;;;;2098049;28;20055;-46
2022/11/21 00:26:15;;;;;;;55.05;23.35;;;;;;;;;;2097829;28;20493;-46
2022/11/21 00:27:16;;;;;;;58.35;26.63;;;;;;;;;;2097827;28;20490;-47
2022/11/21 00:28:17;;;;;;;76.13;30.30;;;;;;;;;;2097909;28;20132;-45
2022/11/21 00:29:18;;;;;;;65.88;29.80;;;;;;;;;;2097788;28;20053;-46
2022/11/21 00:30:19;;;;;;;58.20;27.60;;;;;;;;;;2097845;28;20091;-46
2022/11/21 00:31:22;;;;;;;61.60;27.63;;;;;;;;;;2097914;28;20053;-46
2022/11/21 00:32:23;;;;;;;60.00;25.60;;;;;;;;;;2097949;28;20138;-46
2022/11/21 00:33:24;;;;;;;76.05;30.27;;;;;;;;;;2097663;28;20053;-46
2022/11/21 00:34:25;;;;;;;62.93;29.20;;;;;;;;;;2097772;28;20234;-45
2022/11/21 00:35:26;;;;;;;57.05;23.23;;;;;;;;;;2097842;28;20049;-46
2022/11/21 00:36:28;;;;;;;62.70;27.50;;;;;;;;;;2097760;28;20055;-47
2022/11/21 00:37:30;;;;;;;67.18;29.60;;;;;;;;;;2097998;28;20052;-46
2022/11/21 00:38:31;;;;;;;56.08;21.88;;;;;;;;;;2097963;28;20123;-45
2022/11/21 00:39:32;;;;;;;75.40;31.30;;;;;;;;;;2097869;28;20044;-46
2022/11/21 00:40:33;;;;;;;61.25;25.50;;;;;;;;;;2097807;28;20412;-47
2022/11/21 00:41:34;;;;;;;68.30;30.70;;;;;;;;;;2097866;28;20055;-45
2022/11/21 00:42:35;;;;;;;64.18;25.08;;;;;;;;;;2097768;28;20106;-45
2022/11/21 00:43:36;;;;;;;77.13;32.00;;;;;;;;;;2097745;28;20052;-45
2022/11/21 00:44:37;;;;;;;60.30;22.48;;;;;;;;;;2097725;28;20048;-45
2022/11/21 00:45:38;;;;;;;70.55;31.58;;;;;;;;;;2097858;28;20114;-46
2022/11/21 00:46:40;;;;;;;67.07;27.90;;;;;;;;;;2097731;28;20117;-45
2022/11/21 00:47:41;;;;;;;71.43;29.77;;;;;;;;;;2097724;28;20052;-45
2022/11/21 00:48:42;;;;;;;71.13;29.88;;;;;;;;;;2097853;28;20131;-45
2022/11/21 00:49:43;;;;;;;71.78;30.13;;;;;;;;;;2097475;28;20047;-45
2022/11/21 00:50:47;;;;;;;56.58;22.20;;;;;;;;;;2097719;28;20055;-47
2022/11/21 00:51:48;;;;;;;70.32;32.35;;;;;;;;;;2097596;28;20041;-45
2022/11/21 00:52:53;;;;;;;74.80;31.60;;;;;;;;;;2097878;28;20086;-45
2022/11/21 00:53:54;;;;;;;52.75;20.77;;;;;;;;;;2097691;28;20044;-46
2022/11/21 00:54:55;;;;;;;84.43;33.10;;;;;;;;;;2097686;28;20055;-45
2022/11/21 00:55:56;;;;;;;59.28;21.70;;;;;;;;;;2097686;28;20048;-46
2022/11/21 00:56:57;;;;;;;75.22;31.75;;;;;;;;;;2103522;28;20055;-42
2022/11/21 00:57:58;;;;;;;77.75;32.92;;;;;;;;;;2106072;28;20047;-41
2022/11/21 00:58:59;;;;;;;77.15;31.08;;;;;;;;;;2105997;28;20401;-41
2022/11/21 01:00:00;;;;;;;76.75;32.28;;;;;;;;;;2106027;28;20052;-41
2022/11/21 01:01:03;;;;;;;80.15;31.63;;;;;;;;;;2106220;28;20044;-46
2022/11/21 01:02:04;;;;;;;74.75;29.30;;;;;;;;;;2105954;28;20048;-45
2022/11/21 01:03:06;;;;;;;72.97;30.23;;;;;;;;;;2106203;28;20040;-41
2022/11/21 01:04:06;;;;;;;57.80;21.92;;;;;;;;;;2105951;28;20101;-41
2022/11/21 01:05:08;;;;;;;80.32;32.38;;;;;;;;;;2106041;28;20048;-41
2022/11/21 01:06:10;;;;;;;70.35;29.83;;;;;;;;;;2106114;28;20055;-41
2022/11/21 01:07:11;;;;;;;;;;;;;;;;;;2106385;28;20408;-41
2022/11/21 01:08:12;;;;;;;58.15;21.85;;;;;;;;;;2105941;28;19924;-41
2022/11/21 01:09:13;;;;;;;68.15;29.20;;;;;;;;;;2105936;28;20081;-41
2022/11/21 01:10:14;;;;;;;59.28;23.15;;;;;;;;;;2105958;28;20050;-41
2022/11/21 01:11:15;;;;;;;70.55;30.55;;;;;;;;;;2105913;28;20504;-41
2022/11/21 01:12:17;;;;;;;72.55;29.20;;;;;;;;;;2106173;28;20044;-41
2022/11/21 01:13:17;;;;;;;73.97;30.08;;;;;;;;;;2106071;28;20048;-42
2022/11/21 01:14:19;;;;;;;75.27;30.83;;;;;;;;;;2105891;28;20520;-41
2022/11/21 01:15:19;;;;;;;58.55;21.30;;;;;;;;;;2106059;28;20052;-42
2022/11/21 01:16:22;;;;;;;73.10;30.33;;;;;;;;;;2105899;28;20048;-42
2022/11/21 01:17:23;;;;;;;66.13;28.35;;;;;;;;;;2105996;28;20043;-41
2022/11/21 01:18:24;;;;;;;65.35;26.38;;;;;;;;;;2105687;28;20100;-41
2022/11/21 01:19:25;;;;;;;74.80;30.63;;;;;;;;;;2099789;28;20433;-42
2022/11/21 01:20:26;;;;;;;62.03;25.33;;;;;;;;;;2097628;28;20049;-41
2022/11/21 01:21:28;;;;;;;74.57;31.98;;;;;;;;;;2097646;28;20052;-41
2022/11/21 01:22:29;;;;;;;56.92;20.00;;;;;;;;;;2097393;28;20481;-41
2022/11/21 01:23:30;;;;;;;66.60;29.42;;;;;;;;;;2097429;28;20525;-42
2022/11/21 01:24:31;;;;;;;67.43;29.05;;;;;;;;;;2097544;28;20060;-42
2022/11/21 01:25:32;;;;;;;76.13;30.85;;;;;;;;;;2097383;28;20044;-41
2022/11/21 01:26:33;;;;;;;75.33;28.53;;;;;;;;;;2097683;28;20052;-42
2022/11/21 01:27:34;;;;;;;83.80;30.63;;;;;;;;;;2097569;28;20049;-41
2022/11/21 01:28:35;;;;;;;72.20;28.90;;;;;;;;;;2097423;28;20129;-42
2022/11/21 01:29:37;;;;;;;71.72;30.55;;;;;;;;;;2097320;28;20484;-42
2022/11/21 01:30:38;;;;;;;75.20;29.90;;;;;;;;;;2097494;28;20048;-41
2022/11/21 01:31:39;;;;;;;80.70;31.98;;;;;;;;;;2097439;28;20055;-42
2022/11/21 01:32:41;;;;;;;73.15;27.60;;;;;;;;;;2097604;28;20044;-42
2022/11/21 01:33:42;;;;;;;75.85;29.55;;;;;;;;;;2097499;28;20162;-41
2022/11/21 01:34:43;;;;;;;66.65;25.52;;;;;;;;;;2097514;28;20504;-42
2022/11/21 01:35:44;;;;;;;76.65;31.67;;;;;;;;;;2097480;28;20040;-41
2022/11/21 01:36:45;;;;;;;72.22;29.40;;;;;;;;;;2097472;28;20049;-41
2022/11/21 01:37:47;;;;;;;75.05;33.00;;;;;;;;;;2097439;28;20040;-42
2022/11/21 01:38:49;;;;;;;63.92;22.35;;;;;;;;;;2097501;28;20047;-42
2022/11/21 01:39:49;;;;;;;;;;;;;;;;;;2097806;28;20412;-42
2022/11/21 01:40:50;;;;;;;58.10;21.45;;;;;;;;;;2097524;28;19924;-42
2022/11/21 01:41:51;;;;;;;75.47;31.23;;;;;;;;;;2097449;28;20056;-42
2022/11/21 01:42:53;;;;;;;68.00;28.17;;;;;;;;;;2097706;28;20080;-42
2022/11/21 01:43:54;;;;;;;79.43;30.95;;;;;;;;;;2097427;28;20044;-42
2022/11/21 01:44:55;;;;;;;73.35;29.05;;;;;;;;;;2097477;28;20051;-42
2022/11/21 01:45:57;;;;;;;71.25;29.23;;;;;;;;;;2097597;28;20044;-42
2022/11/21 01:46:58;;;;;;;79.38;31.70;;;;;;;;;;2097397;28;20040;-42
2022/11/21 01:47:59;;;;;;;75.78;32.28;;;;;;;;;;2097566;28;20473;-42
2022/11/21 01:49:02;;;;;;;73.30;30.35;;;;;;;;;;2097329;28;20071;-42
2022/11/21 01:50:03;;;;;;;77.75;33.05;;;;;;;;;;2097219;28;20412;-42
2022/11/21 01:51:07;;;;;;;73.32;29.75;;;;;;;;;;2097474;28;20044;-42
2022/11/21 01:52:10;;;;;;;82.07;32.08;;;;;;;;;;2097347;28;20425;-42
2022/11/21 01:53:11;;;;;;;75.80;31.05;;;;;;;;;;2102695;28;20059;-42
2022/11/21 01:54:14;;;;;;;82.10;33.13;;;;;;;;;;2105610;28;20401;-42
2022/11/21 01:55:15;;;;;;;70.57;30.20;;;;;;;;;;2105563;28;20040;-42
2022/11/21 01:56:16;;;;;;;76.25;32.60;;;;;;;;;;2105852;28;20052;-42
2022/11/21 01:57:19;;;;;;;64.47;25.63;;;;;;;;;;2105637;28;20056;-42
2022/11/21 01:58:21;;;;;;;68.72;29.20;;;;;;;;;;2105679;28;20055;-42
2022/11/21 01:59:25;;;;;;;74.00;31.52;;;;;;;;;;2105587;28;20044;-42
2022/11/21 02:00:28;;;;;;;68.18;28.65;;;;;;;;;;2105661;28;20401;-42
2022/11/21 02:01:30;;;;;;;74.38;30.55;;;;;;;;;;2105572;28;20047;-42
2022/11/21 02:02:32;;;;;;;69.70;27.08;;;;;;;;;;2105645;28;20048;-42
2022/11/21 02:03:36;;;;;;;80.07;30.05;;;;;;;;;;2105655;28;20102;-42
2022/11/21 02:04:39;;;;;;;68.30;26.13;;;;;;;;;;2105629;28;20048;-42
2022/11/21 02:05:40;;;;;;;70.50;30.73;;;;;;;;;;2105708;28;20048;-42
2022/11/21 02:06:42;;;;;;;59.85;27.20;;;;;;;;;;2105691;28;20447;-42
2022/11/21 02:07:45;;;;;;;68.65;29.42;;;;;;;;;;2105709;28;20048;-43
2022/11/21 02:08:46;;;;;;;71.20;26.02;;;;;;;;;;2105659;28;20105;-49
2022/11/21 02:09:49;;;;;;;72.60;29.33;;;;;;;;;;2105488;28;20052;-47
2022/11/21 02:10:55;;;;;;;62.08;19.63;;;;;;;;;;2105608;28;20044;-46
2022/11/21 02:11:58;;;;;;;62.35;28.65;;;;;;;;;;2105559;28;20489;-47
2022/11/21 02:12:59;;;;;;;62.88;25.35;;;;;;;;;;2105620;28;20036;-47
2022/11/21 02:14:00;;;;;;;66.33;28.27;;;;;;;;;;2105875;28;20401;-47
2022/11/21 02:15:01;;;;;;;58.47;24.08;;;;;;;;;;2105599;28;20047;-46
2022/11/21 02:16:03;;;;;;;63.63;27.40;;;;;;;;;;2105699;28;20486;-47
2022/11/21 02:17:05;;;;;;;56.70;20.63;;;;;;;;;;2105572;28;20052;-47
2022/11/21 02:18:08;;;;;;;68.53;28.65;;;;;;;;;;2105669;28;20048;-47
2022/11/21 02:19:14;;;;;;;63.58;27.15;;;;;;;;;;2102429;28;20045;-47
2022/11/21 02:20:16;;;;;;;73.38;29.23;;;;;;;;;;2097196;28;20055;-47
2022/11/21 02:21:16;;;;;;;;;;;;;;;;;;2097755;28;20074;-47
2022/11/21 02:22:22;;;;;;;44.67;17.70;;;;;;;;;;2097381;28;19924;-47
2022/11/21 02:23:27;;;;;;;63.38;28.77;;;;;;;;;;2097099;28;20477;-47
2022/11/21 02:24:31;;;;;;;64.82;28.70;;;;;;;;;;2097050;28;20551;-47
2022/11/21 02:25:34;;;;;;;63.88;27.58;;;;;;;;;;2097507;28;20049;-46
2022/11/21 02:26:35;;;;;;;67.00;26.17;;;;;;;;;;2097090;28;20045;-46
2022/11/21 02:27:36;;;;;;;72.32;30.25;;;;;;;;;;2097193;28;20044;-45
2022/11/21 02:28:37;;;;;;;65.72;25.38;;;;;;;;;;2097159;28;20173;-47
2022/11/21 02:29:39;;;;;;;70.30;29.48;;;;;;;;;;2097181;28;20045;-48
2022/11/21 02:30:41;;;;;;;58.28;20.20;;;;;;;;;;2097177;28;20070;-47
2022/11/21 02:31:42;;;;;;;66.75;29.58;;;;;;;;;;2099168;28;20304;-47
2022/11/21 02:32:45;;;;;;;64.53;24.10;;;;;;;;;;2098525;28;20049;-47
2022/11/21 02:33:46;;;;;;;69.68;30.75;;;;;;;;;;2098775;28;20109;-47
2022/11/21 02:34:47;;;;;;;68.13;22.90;;;;;;;;;;2098737;28;20476;-46
2022/11/21 02:35:55;;;;;;;71.72;30.25;;;;;;;;;;2098697;28;20040;-48
2022/11/21 02:36:56;;;;;;;63.33;26.48;;;;;;;;;;2098620;28;20048;-47
2022/11/21 02:37:58;;;;;;;71.93;29.48;;;;;;;;;;2098633;28;20040;-46
2022/11/21 02:39:00;;;;;;;66.93;26.02;;;;;;;;;;2098839;28;20044;-42
2022/11/21 02:40:02;;;;;;;78.82;31.38;;;;;;;;;;2098546;28;20047;-42
2022/11/21 02:41:08;;;;;;;70.72;26.27;;;;;;;;;;2098752;28;20049;-42
2022/11/21 02:42:16;;;;;;;74.60;29.42;;;;;;;;;;2098584;28;20060;-47
2022/11/21 02:43:18;;;;;;;73.15;30.30;;;;;;;;;;2098631;28;20473;-47
2022/11/21 02:44:23;;;;;;;68.50;25.98;;;;;;;;;;2098590;28;20447;-43
2022/11/21 02:45:26;;;;;;;82.88;31.83;;;;;;;;;;2098885;28;20049;-42
2022/11/21 02:46:27;;;;;;;84.50;31.98;;;;;;;;;;2098507;28;20052;-42
2022/11/21 02:47:30;;;;;;;80.28;33.03;;;;;;;;;;2098678;28;20056;-42
2022/11/21 02:48:31;;;;;;;73.32;24.35;;;;;;;;;;2098559;28;20052;-42
2022/11/21 02:49:36;;;;;;;80.30;30.15;;;;;;;;;;2104597;28;20040;-42
2022/11/21 02:50:39;;;;;;;79.07;29.73;;;;;;;;;;2106718;28;20517;-42
2022/11/21 02:51:39;;;;;;;;;;;;;;;;;;2107445;28;20052;-42
2022/11/21 02:52:40;;;;;;;64.18;22.38;;;;;;;;;;2106845;28;19924;-42
2022/11/21 02:53:41;;;;;;;77.60;30.42;;;;;;;;;;2106944;28;20059;-42
2022/11/21 02:54:42;;;;;;;75.43;30.40;;;;;;;;;;2106951;28;20459;-42
2022/11/21 02:55:44;;;;;;;83.40;29.60;;;;;;;;;;2106772;28;20058;-42
2022/11/21 02:56:45;;;;;;;73.15;30.10;;;;;;;;;;2107146;28;20048;-42
2022/11/21 02:57:46;;;;;;;75.55;29.00;;;;;;;;;;2106826;28;20431;-42
2022/11/21 02:58:47;;;;;;;72.68;27.50;;;;;;;;;;2106976;28;20040;-42
2022/11/21 02:59:48;;;;;;;83.10;31.15;;;;;;;;;;2106697;28;20047;-42
2022/11/21 03:00:49;;;;;;;69.40;28.15;;;;;;;;;;2106978;28;20052;-42
2022/11/21 03:01:50;;;;;;;68.18;24.45;;;;;;;;;;2106792;28;20071;-42
2022/11/21 03:02:53;;;;;;;80.72;30.90;;;;;;;;;;2106993;28;20066;-42
2022/11/21 03:03:54;;;;;;;64.05;25.88;;;;;;;;;;2107052;28;20051;-42
2022/11/21 03:04:55;;;;;;;74.73;30.23;;;;;;;;;;2106910;28;20075;-42
2022/11/21 03:05:56;;;;;;;69.22;26.55;;;;;;;;;;2106857;28;20059;-42
2022/11/21 03:06:57;;;;;;;73.20;28.63;;;;;;;;;;2106836;28;20051;-42
2022/11/21 03:07:58;;;;;;;70.50;28.98;;;;;;;;;;2107062;28;20481;-42
2022/11/21 03:08:59;;;;;;;67.40;25.83;;;;;;;;;;2106703;28;20040;-42
2022/11/21 03:10:00;;;;;;;71.07;28.58;;;;;;;;;;2106919;28;20055;-42
2022/11/21 03:11:01;;;;;;;59.10;22.20;;;;;;;;;;2106692;28;20059;-42
2022/11/21 03:12:05;;;;;;;67.65;28.33;;;;;;;;;;2106697;28;20425;-42
2022/11/21 03:13:06;;;;;;;65.55;25.45;;;;;;;;;;2106794;28;20055;-42
2022/11/21 03:14:07;;;;;;;78.18;30.98;;;;;;;;;;2106850;28;20052;-42
2022/11/21 03:15:10;;;;;;;60.60;21.60;;;;;;;;;;2106735;28;20100;-42
2022/11/21 03:16:10;;;;;;;65.65;29.10;;;;;;;;;;2106865;28;20105;-42
2022/11/21 03:17:12;;;;;;;70.10;28.93;;;;;;;;;;2106859;28;20047;-42
2022/11/21 03:18:12;;;;;;;68.70;27.40;;;;;;;;;;2106650;28;20493;-42
2022/11/21 03:19:14;;;;;;;56.58;20.88;;;;;;;;;;2102728;28;20052;-42
2022/11/21 03:20:14;;;;;;;69.88;29.83;;;;;;;;;;2098558;28;20044;-46
2022/11/21 03:21:16;;;;;;;62.65;25.20;;;;;;;;;;2098505;28;20458;-47
2022/11/21 03:22:16;;;;;;;72.03;28.50;;;;;;;;;;2098382;28;20052;-47
2022/11/21 03:23:18;;;;;;;63.53;27.00;;;;;;;;;;2098719;28;20086;-46
2022/11/21 03:24:19;;;;;;;65.40;28.23;;;;;;;;;;2098162;28;20067;-48
2022/11/21 03:25:20;;;;;;;58.45;23.73;;;;;;;;;;2098336;28;20068;-48
2022/11/21 03:26:21;;;;;;;75.00;29.58;;;;;;;;;;2098265;28;20547;-47
2022/11/21 03:27:23;;;;;;;69.03;27.60;;;;;;;;;;2098282;28;20110;-47
2022/11/21 03:28:23;;;;;;;64.80;27.90;;;;;;;;;;2098626;28;20052;-42
2022/11/21 03:29:25;;;;;;;71.17;26.33;;;;;;;;;;2098169;28;20045;-42
2022/11/21 03:30:26;;;;;;;65.20;24.88;;;;;;;;;;2098302;28;20044;-42
2022/11/21 03:31:27;;;;;;;68.68;28.88;;;;;;;;;;2098309;28;20048;-42
2022/11/21 03:32:28;;;;;;;70.22;29.00;;;;;;;;;;2098383;28;20055;-41
2022/11/21 03:33:29;;;;;;;81.33;29.67;;;;;;;;;;2098252;28;20058;-42
2022/11/21 03:34:30;;;;;;;70.22;29.35;;;;;;;;;;2098368;28;20053;-42
2022/11/21 03:35:31;;;;;;;58.65;20.15;;;;;;;;;;2098238;28;20049;-42
2022/11/21 03:36:32;;;;;;;79.15;29.58;;;;;;;;;;2098218;28;20435;-42
2022/11/21 03:37:33;;;;;;;62.25;26.95;;;;;;;;;;2098823;28;20131;-42
2022/11/21 03:38:34;;;;;;;60.15;24.13;;;;;;;;;;2098423;28;20044;-47
2022/11/21 03:39:35;;;;;;;67.38;29.08;;;;;;;;;;2098275;28;20059;-47
2022/11/21 03:40:36;;;;;;;49.97;20.25;;;;;;;;;;2098207;28;20386;-48
2022/11/21 03:41:37;;;;;;;63.55;26.63;;;;;;;;;;2097836;28;20055;-48
2022/11/21 03:42:38;;;;;;;82.40;29.83;;;;;;;;;;2098111;28;20102;-47
2022/11/21 03:43:40;;;;;;;66.97;25.15;;;;;;;;;;2098508;28;20055;-42
2022/11/21 03:44:41;;;;;;;70.53;29.77;;;;;;;;;;2098063;28;20487;-42
2022/11/21 03:45:44;;;;;;;83.78;28.73;;;;;;;;;;2103699;28;20093;-42
2022/11/21 03:46:46;;;;;;;61.55;24.48;;;;;;;;;;2106628;28;20048;-42
2022/11/21 03:47:47;;;;;;;72.93;30.20;;;;;;;;;;2106505;28;20378;-42
2022/11/21 03:48:48;;;;;;;55.17;19.70;;;;;;;;;;2106695;28;20164;-42
2022/11/21 03:49:49;;;;;;;77.77;29.87;;;;;;;;;;2106466;28;20518;-42
2022/11/21 03:50:50;;;;;;;69.45;28.05;;;;;;;;;;2106572;28;20362;-42
2022/11/21 03:51:51;;;;;;;50.83;21.83;;;;;;;;;;2106534;28;20121;-42
2022/11/21 03:52:52;;;;;;;66.57;28.08;;;;;;;;;;2106859;28;20048;-47
2022/11/21 03:53:53;;;;;;;49.03;19.08;;;;;;;;;;2106503;28;20456;-46
2022/11/21 03:54:54;;;;;;;70.20;28.25;;;;;;;;;;2106397;28;20052;-47
2022/11/21 03:55:55;;;;;;;70.67;28.60;;;;;;;;;;2106548;28;20079;-48
2022/11/21 03:56:56;;;;;;;67.03;28.42;;;;;;;;;;2106627;28;20055;-47
2022/11/21 03:57:58;;;;;;;75.30;28.85;;;;;;;;;;2106447;28;20048;-46
2022/11/21 03:58:59;;;;;;;63.50;24.08;;;;;;;;;;2106601;28;20044;-47
2022/11/21 04:00:00;;;;;;;62.83;27.35;;;;;;;;;;2106414;28;20052;-47
2022/11/21 04:01:01;;;;;;;46.92;18.55;;;;;;;;;;2106375;28;20056;-48
2022/11/21 04:02:02;;;;;;;70.63;29.80;;;;;;;;;;2106591;28;20135;-48
2022/11/21 04:03:03;;;;;;;66.18;25.42;;;;;;;;;;2106487;28;20048;-47
2022/11/21 04:04:04;;;;;;;79.60;30.47;;;;;;;;;;2106417;28;20079;-47
2022/11/21 04:05:05;;;;;;;78.95;29.73;;;;;;;;;;2106398;28;20054;-48
2022/11/21 04:06:07;;;;;;;66.27;28.23;;;;;;;;;;2106405;28;20406;-47
2022/11/21 04:07:08;;;;;;;62.92;22.17;;;;;;;;;;2106331;28;20291;-48
2022/11/21 04:08:09;;;;;;;72.30;30.03;;;;;;;;;;2106660;28;20056;-48
2022/11/21 04:09:10;;;;;;;78.10;29.27;;;;;;;;;;2106429;28;20493;-47
2022/11/21 04:10:11;;;;;;;77.85;29.52;;;;;;;;;;2106481;28;20052;-47
2022/11/21 04:11:12;;;;;;;66.50;24.55;;;;;;;;;;2106284;28;20492;-48
2022/11/21 04:12:14;;;;;;;76.17;27.87;;;;;;;;;;2106270;28;20052;-46
2022/11/21 04:13:15;;;;;;;72.20;28.42;;;;;;;;;;2106433;28;20044;-47
2022/11/21 04:14:16;;;;;;;72.90;28.52;;;;;;;;;;2106483;28;20048;-42
2022/11/21 04:15:17;;;;;;;68.82;25.45;;;;;;;;;;2106448;28;20048;-42
2022/11/21 04:16:19;;;;;;;76.10;29.20;;;;;;;;;;2106341;28;20493;-42
2022/11/21 04:17:19;;;;;;;57.85;23.02;;;;;;;;;;2106486;28;20055;-42
2022/11/21 04:18:21;;;;;;;73.40;30.48;;;;;;;;;;2106410;28;20052;-42
2022/11/21 04:19:21;;;;;;;74.68;28.02;;;;;;;;;;2101146;28;20454;-42
2022/11/21 04:20:23;;;;;;;69.87;27.07;;;;;;;;;;2098221;28;20390;-42
2022/11/21 04:21:23;;;;;;;77.75;29.95;;;;;;;;;;2098033;28;20217;-42
2022/11/21 04:22:25;;;;;;;70.78;21.92;;;;;;;;;;2098070;28;20084;-42
2022/11/21 04:23:26;;;;;;;75.53;30.48;;;;;;;;;;2097877;28;20052;-42
2022/11/21 04:24:27;;;;;;;84.50;30.38;;;;;;;;;;2097779;28;20109;-42
2022/11/21 04:25:28;;;;;;;65.32;23.42;;;;;;;;;;2097873;28;20040;-42
2022/11/21 04:26:29;;;;;;;76.70;32.20;;;;;;;;;;2098107;28;20444;-42
2022/11/21 04:27:30;;;;;;;76.13;29.55;;;;;;;;;;2098110;28;20048;-42
2022/11/21 04:28:32;;;;;;;80.03;29.95;;;;;;;;;;2097954;28;20056;-42
2022/11/21 04:29:33;;;;;;;72.63;29.77;;;;;;;;;;2097773;28;20405;-42
2022/11/21 04:30:34;;;;;;;80.70;32.22;;;;;;;;;;2097977;28;20044;-42
2022/11/21 04:31:35;;;;;;;71.32;26.83;;;;;;;;;;2097785;28;20055;-42
2022/11/21 04:32:36;;;;;;;57.95;20.83;;;;;;;;;;2097949;28;20094;-42
2022/11/21 04:33:37;;;;;;;73.32;30.45;;;;;;;;;;2098022;28;20053;-42
2022/11/21 04:34:38;;;;;;;79.57;31.13;;;;;;;;;;2097783;28;20589;-42
2022/11/21 04:35:39;;;;;;;76.50;29.08;;;;;;;;;;2097867;28;20052;-42
2022/11/21 04:36:40;;;;;;;70.78;31.02;;;;;;;;;;2097894;28;20055;-42
2022/11/21 04:37:41;;;;;;;62.20;24.08;;;;;;;;;;2097880;28;20052;-42
2022/11/21 04:38:42;;;;;;;71.00;29.45;;;;;;;;;;2097840;28;20048;-42
2022/11/21 04:39:43;;;;;;;58.20;21.10;;;;;;;;;;2097712;28;20044;-42
2022/11/21 04:40:44;;;;;;;72.72;30.30;;;;;;;;;;2097768;28;20048;-42
2022/11/21 04:41:45;;;;;;;73.32;28.73;;;;;;;;;;2101654;28;20044;-42
2022/11/21 04:42:47;;;;;;;77.45;30.73;;;;;;;;;;2106198;28;20131;-42
2022/11/21 04:43:48;;;;;;;69.68;26.08;;;;;;;;;;2106499;28;20055;-42
2022/11/21 04:44:49;;;;;;;76.70;29.98;;;;;;;;;;2106071;28;20493;-42
2022/11/21 04:45:50;;;;;;;83.18;30.27;;;;;;;;;;2106131;28;20040;-42
2022/11/21 04:46:52;;;;;;;66.90;26.93;;;;;;;;;;2106188;28;20095;-42
2022/11/21 04:47:52;;;;;;;83.55;29.25;;;;;;;;;;2106138;28;20047;-42
2022/11/21 04:48:54;;;;;;;78.43;30.17;;;;;;;;;;2106391;28;20462;-47
2022/11/21 04:49:54;;;;;;;84.35;28.73;;;;;;;;;;2106058;28;20043;-47
2022/11/21 04:50:56;;;;;;;81.10;30.13;;;;;;;;;;2106114;28;20058;-46
2022/11/21 04:51:56;;;;;;;75.88;27.33;;;;;;;;;;2106026;28;20400;-47
2022/11/21 04:52:58;;;;;;;85.20;28.58;;;;;;;;;;2106008;28;20044;-47
2022/11/21 04:53:58;;;;;;;85.40;31.40;;;;;;;;;;2105228;28;20051;-47
2022/11/21 04:55:00;;;;;;;83.23;30.97;;;;;;;;;;2106081;28;20496;-47
2022/11/21 04:56:02;;;;;;;88.20;31.98;;;;;;;;;;2106347;28;20059;-42
2022/11/21 04:57:03;;;;;;;73.00;25.35;;;;;;;;;;2106060;28;20093;-42
2022/11/21 04:58:04;;;;;;;89.03;32.65;;;;;;;;;;2106196;28;20109;-42
2022/11/21 04:59:06;;;;;;;81.88;31.77;;;;;;;;;;2105762;28;20467;-42
2022/11/21 05:00:08;;;;;;;89.53;31.35;;;;;;;;;;2106070;28;20489;-42
2022/11/21 05:01:09;;;;;;;88.28;33.05;;;;;;;;;;2106103;28;20055;-42
2022/11/21 05:02:10;;;;;;;81.05;31.77;;;;;;;;;;2106136;28;20052;-42
2022/11/21 05:03:11;;;;;;;89.65;32.60;;;;;;;;;;2105999;28;20548;-42
2022/11/21 05:04:12;;;;;;;87.75;32.45;;;;;;;;;;2106060;28;20052;-42
2022/11/21 05:05:13;;;;;;;79.13;31.57;;;;;;;;;;2105988;28;20048;-42
2022/11/21 05:06:14;;;;;;;75.60;26.23;;;;;;;;;;2105994;28;20040;-42
2022/11/21 05:07:15;;;;;;;86.33;32.00;;;;;;;;;;2106117;28;20052;-42
2022/11/21 05:08:16;;;;;;;68.47;25.45;;;;;;;;;;2106154;28;20048;-48
2022/11/21 05:09:17;;;;;;;91.57;31.98;;;;;;;;;;2106201;28;20134;-42
2022/11/21 05:10:18;;;;;;;80.78;33.20;;;;;;;;;;2106071;28;20040;-42
2022/11/21 05:13:58;;;;;;;83.35;32.17;;;;;;;;;;2105928;28;20071;-42
2022/11/21 05:15:00;;;;;;;67.95;22.65;;;;;;;;;;2106128;28;20044;-42
2022/11/21 05:16:01;;;;;;;84.90;31.58;;;;;;;;;;2106112;28;20062;-42
2022/11/21 05:17:02;;;;;;;90.03;34.85;;;;;;;;;;2105897;28;20044;-42
2022/11/21 05:18:03;;;;;;;87.20;33.58;;;;;;;;;;2106177;28;20560;-42
2022/11/21 05:19:04;;;;;;;70.80;22.75;;;;;;;;;;2103201;28;20101;-42
2022/11/21 05:20:06;;;;;;;93.97;33.93;;;;;;;;;;2097593;28;20513;-42
2022/11/21 05:21:08;;;;;;;95.05;32.55;;;;;;;;;;2097476;28;20409;-42
2022/11/21 05:22:09;;;;;;;90.47;33.33;;;;;;;;;;2097701;28;20040;-42
2022/11/21 05:23:10;;;;;;;87.93;32.90;;;;;;;;;;2097707;28;20131;-42
2022/11/21 05:24:11;;;;;;;83.65;31.35;;;;;;;;;;2097609;28;20522;-47
2022/11/21 05:25:12;;;;;;;88.10;32.67;;;;;;;;;;2097834;28;20060;-42
2022/11/21 05:26:13;;;;;;;87.53;31.42;;;;;;;;;;2097502;28;20094;-42
2022/11/21 05:27:14;;;;;;;82.95;33.20;;;;;;;;;;2097813;28;20101;-42
2022/11/21 05:28:15;;;;;;;87.68;32.55;;;;;;;;;;2097442;28;20048;-42
2022/11/21 05:29:16;;;;;;;82.23;28.27;;;;;;;;;;2097498;28;20052;-42
2022/11/21 05:30:18;;;;;;;97.80;34.28;;;;;;;;;;2097570;28;20138;-42
2022/11/21 05:31:19;;;;;;;70.32;27.77;;;;;;;;;;2097426;28;20052;-42
2022/11/21 05:32:20;;;;;;;91.85;31.58;;;;;;;;;;2097569;28;20067;-42
2022/11/21 05:33:21;;;;;;;76.03;31.85;;;;;;;;;;2097388;28;20123;-42
2022/11/21 05:34:22;;;;;;;87.55;32.80;;;;;;;;;;2097413;28;20441;-43
2022/11/21 05:35:23;;;;;;;78.57;23.15;;;;;;;;;;2097402;28;20141;-42
2022/11/21 05:36:24;;;;;;;88.32;34.83;;;;;;;;;;2097792;28;20093;-42
2022/11/21 05:37:25;;;;;;;67.60;24.63;;;;;;;;;;2097385;28;20739;-42
2022/11/21 05:38:26;;;;;;;88.65;33.50;;;;;;;;;;2104834;28;20048;-42
2022/11/21 05:39:27;;;;;;;67.90;23.97;;;;;;;;;;2105790;28;20500;-42
2022/11/21 05:40:28;;;;;;;85.50;34.22;;;;;;;;;;2105842;28;20052;-42
2022/11/21 05:41:29;;;;;;;72.85;25.63;;;;;;;;;;2106073;28;20051;-47
2022/11/21 05:43:49;;;;;;;78.38;30.30;;;;;;;;;;2105824;28;20044;-42
2022/11/21 05:44:51;;;;;;;89.20;35.50;;;;;;;;;;2105635;28;20127;-42
2022/11/21 05:45:52;;;;;;;83.68;31.40;;;;;;;;;;2105930;28;20055;-42
2022/11/21 05:46:53;;;;;;;97.32;37.28;;;;;;;;;;2105880;28;20044;-42
2022/11/21 05:47:54;;;;;;;80.25;29.30;;;;;;;;;;2105909;28;20052;-42
2022/11/21 05:48:55;;;;;;;99.27;37.63;;;;;;;;;;2105793;28;20127;-42
2022/11/21 05:49:56;;;;;;;81.20;28.65;;;;;;;;;;2105646;28;20404;-42
2022/11/21 05:50:57;;;;;;;89.93;35.55;;;;;;;;;;2105641;28;20284;-42
2022/11/21 05:51:58;;;;;;;82.78;31.17;;;;;;;;;;2105783;28;20121;-42
2022/11/21 05:53:00;;;;;;;74.80;25.27;;;;;;;;;;2106206;28;20465;-47
2022/11/21 05:54:01;;;;;;;87.65;34.20;;;;;;;;;;2105590;28;20527;-48
2022/11/21 05:55:02;;;;;;;71.53;30.67;;;;;;;;;;2105684;28;20048;-47
2022/11/21 05:56:04;;;;;;;73.80;28.70;;;;;;;;;;2105821;28;20044;-47
2022/11/21 05:57:05;;;;;;;;;;;;;;;;;;2106042;28;20043;-48
2022/11/21 05:58:07;;;;;;;66.53;23.13;;;;;;;;;;2105736;28;20357;-47
2022/11/21 05:59:09;;;;;;;78.35;30.67;;;;;;;;;;2105730;28;20048;-47
2022/11/21 06:00:10;;;;;;;;;;;;;;;;;;2106127;28;20044;-48
2022/11/21 06:01:13;;;;;;;61.38;22.70;;;;;;;;;;2105769;28;19966;-47
2022/11/21 06:03:35;;;;;;;64.88;22.45;;;;;;;;;;2105695;28;20550;-48
2022/11/21 06:04:36;;;;;;;72.30;31.25;;;;;;;;;;2105528;28;20040;-46